Terminal Aerodrome Forecast
Issued by NWS Cleveland, OH

Home | Current Version | Previous Version | Text Only | Print | Product List | Glossary Off
Versions: 1 2 3 4 5 6 7 8 9 10 11 12 13 14 15 16 17 18 19 20 21 22 23 24 25

000
FTUS41 KCLE 190500
TAFMFD
TAF
KMFD 190537Z 1906/2006 VRB03KT P6SM SKC
     FM190800 VRB03KT 4SM BR SKC
     FM191000 VRB03KT 1 1/2SM BR SCT100
     FM191300 VRB03KT 4SM BR SCT100
     FM191430 18005KT P6SM SCT040 BKN100
     FM192100 23008KT P6SM BKN035
      TEMPO 1921/1924 3SM TSRA OVC025CB
     FM200100 15006KT 6SM -TSRA SCT035CB OVC050=

USA.gov is the U.S. government's official web portal to all federal, state and local government web resources and services.